MET'MAP v2.0
soon released !

Expected late october,
this new version will be
more efficient, smarter,
and hosted on a brand new
server x3 powerfull...
...and still free !


Not compatible ?
Try the mobile version !

LOG IN : | Subscribe | Disclaimer | Who is Orbifly ? |
ICAO code :

TAF - LFLD Bourges - 13 Dec 2019 08:24 UTC
Data Sources :     NOAA   


- Airport Elevation : 529 ft
- IATA code : BOU
- No reported NOTAMs.


LFLD - Bourges

Latest METAR recorded : 0000/00/00 U :13 TAF LFBU 130500Z 1306/1406 30020G35KT 9999 BKN025 TEMPO 1306/1316 3000 SHRA SCT010 BKN020TCU PROB40 TEMPO 1306/1307 30030G50KT BECMG 1316/1318 25010KT 4000 -RA OVC015 BECMG 1319/1321 26020G30KT TEMPO 1319/1406 2000 RA OVC005
NO TAF


MET'MAP, your aeronautical weather chart ! - Copyright ORBIFLY December 2007

Programming & Development : Alexandra Zaïnal
Co-Developer : Marc-Olivier Méhu
Technical & hardware support : Manuel Goepfert
Concept & Financing : Baudouin d'Aumeries